Flight Track Log - Related Links

Times and Time Zones

All times are in EDT time to prevent confusion due to time zone crossing. See the ASQ5740 flight status page for this flight to view local times or setup timezone preferences in your user account.

Time Position Orientation Groundspeed Altitude Reporting Facility
EDT Latitude Longitude Course Direction KTS MPH feet Rate Location/Type
Wed 12:41:18 PM 38.9833 -77.4500 72° East 187 215 2,200  Level Potomac TRACON
Wed 12:42:18 PM 39.0500 -77.4500 360° North 256 295 4,700 2,789 Climbing Potomac TRACON
Wed 12:43:12 PM 39.1167 -77.4500 360° North 269 310 7,500 2,550 Climbing Potomac TRACON
Wed 12:44:00 PM 39.0167 -76.9589 90° East  Level FlightAware Approximate
Wed 12:44:18 PM 39.1667 -77.3667 52° Northeast 309 356 9,800  Level Potomac TRACON
Wed 12:45:00 PM 39.0449 -76.8373 72° East  Level FlightAware Approximate
Wed 12:46:00 PM 39.0593 -76.7128 72° East  Level FlightAware Approximate
Wed 12:46:38 PM 39.0917 -77.0892 109° East 357 411 14,000  Level Washington Center
Wed 12:47:39 PM 39.0953 -76.9608 88° East 351 404 16,700 2,100 Climbing Washington Center
Wed 12:48:38 PM 39.1089 -76.8569 80° East 335 386 18,200 1,150 Climbing Washington Center
Wed 12:49:39 PM 39.0894 -76.7281 101° East 335 386 19,000 400 Climbing Washington Center
Wed 12:50:38 PM 39.0550 -76.6100 111° Southeast 340 391 19,000 555 Level Washington Center
Wed 12:51:38 PM 39.0247 -76.4894 108° East 346 398 20,100 850 Climbing Washington Center
Wed 12:52:38 PM 39.0108 -76.3583 98° East 352 405 20,700 545 Climbing Washington Center
Wed 12:53:39 PM 39.0597 -76.2306 64° Northeast 357 411 21,200 500 Climbing Washington Center
Wed 12:54:38 PM 39.1103 -76.0944 64° Northeast 385 443 21,700 655 Climbing Washington Center
Wed 12:55:38 PM 39.1628 -75.9583 64° Northeast 400 460 22,500 744 Climbing Washington Center
Wed 12:56:39 PM 39.2278 -75.8300 57° Northeast 412 474 23,200 650 Climbing Washington Center
Wed 12:57:38 PM 39.3133 -75.7231 44° Northeast 417 480 23,800 555 Climbing Washington Center
Wed 12:58:38 PM 39.3989 -75.6131 45° Northeast 422 486 24,300 496 Climbing Washington Center
Wed 12:59:39 PM 39.4886 -75.5003 44° Northeast 432 497 24,800 500 Climbing Washington Center
Wed 01:00:38 PM 39.5781 -75.3842 45° Northeast 437 503 25,300 504 Climbing Washington Center
Wed 01:01:38 PM 39.6631 -75.2681 46° Northeast 437 503 25,800 569 Climbing Washington Center
Wed 01:02:34 PM 39.7489 -75.1450 48° Northeast 450 518 26,400 513 Climbing New York Center
Wed 01:03:35 PM 39.8281 -75.0336 47° Northeast 438 504 26,800 496 Climbing New York Center
Wed 01:04:35 PM 39.9194 -74.9283 41° Northeast 438 504 27,400 541 Climbing New York Center
Wed 01:05:37 PM 40.0194 -74.8067 43° Northeast 438 504 27,900 504 Climbing New York Center
Wed 01:06:34 PM 40.1019 -74.7083 42° Northeast 438 504 28,400 513 Climbing New York Center
Wed 01:07:34 PM 40.2039 -74.5892 42° Northeast 432 497 28,900 492 Climbing New York Center
Wed 01:08:36 PM 40.2994 -74.4719 43° Northeast 441 507 29,400 500 Climbing New York Center
Wed 01:09:34 PM 40.3903 -74.3597 43° Northeast 441 507 29,900 504 Climbing New York Center
Wed 01:10:35 PM 40.4872 -74.2556 39° Northeast 447 514 30,400 496 Climbing New York Center
Wed 01:11:35 PM 40.5986 -74.2231 12° North 416 479 30,900 228 Climbing New York Center
Wed 01:13:13 PM 40.7844 -74.1806 10° North 411 473 31,000 38 Climbing Boston Center
Wed 01:14:13 PM 40.9014 -74.1481 12° North 422 486 31,000  Level Boston Center
Wed 01:15:13 PM 41.0167 -74.1181 11° North 422 486 31,000  Level Boston Center
Wed 01:16:14 PM 41.1297 -74.0881 11° North 422 486 31,000  Level Boston Center
Wed 01:17:14 PM 41.2425 -74.0550 12° North 417 480 31,000  Level Boston Center
Wed 01:18:15 PM 41.3325 -74.0353 North 410 472 31,000  Level Boston Center
Wed 01:19:15 PM 41.4644 -73.9969 12° North 410 472 31,000  Level Boston Center
Wed 01:20:13 PM 41.5753 -73.9692 11° North 410 472 31,000  Level Boston Center
Wed 01:21:14 PM 41.6839 -73.9356 13° North 404 465 31,000  Level Boston Center
Wed 01:22:15 PM 41.7928 -73.9075 11° North 398 458 31,000  Level Boston Center
Wed 01:23:15 PM 41.8931 -73.8847 10° North 382 440 31,000  Level Boston Center
Wed 01:24:13 PM 42.0017 -73.8594 10° North 382 440 31,000  Level Boston Center
Wed 01:25:13 PM 42.1125 -73.8283 12° North 394 453 31,000  Level Boston Center
Wed 01:26:14 PM 42.2214 -73.7969 12° North 394 453 31,000  Level Boston Center
Wed 01:27:14 PM 42.3322 -73.7686 11° North 394 453 31,000  Level Boston Center
Wed 01:28:15 PM 42.4408 -73.7400 11° North 394 453 31,000  Level Boston Center
Wed 01:29:15 PM 42.5539 -73.7083 12° North 394 453 31,000  Level Boston Center
Wed 01:30:16 PM 42.6625 -73.6767 12° North 394 453 31,000  Level Boston Center
Wed 01:31:14 PM 42.7753 -73.6478 11° North 394 453 31,000  Level Boston Center
Wed 01:32:14 PM 42.8819 -73.6131 13° North 394 453 31,000  Level Boston Center
Wed 01:33:15 PM 42.9928 -73.5842 11° North 394 453 31,000  Level Boston Center
Wed 01:34:13 PM 43.1036 -73.5519 12° North 394 453 31,000 -655 Level Boston Center
Wed 01:35:14 PM 43.2164 -73.5228 11° North 399 459 29,700 -1,869 Descending Boston Center
Wed 01:36:15 PM 43.3333 -73.4906 11° North 412 474 27,200 -2,579 Descending Boston Center
Wed 01:37:15 PM 43.4442 -73.4581 12° North 412 474 24,500 -2,797 Descending Boston Center
Wed 01:38:13 PM 43.5506 -73.4283 11° North 397 457 21,700 -3,102 Descending Boston Center
Wed 01:39:13 PM 43.6656 -73.3931 13° North 391 450 18,400 -2,876 Descending Boston Center
Wed 01:40:14 PM 43.7636 -73.3686 10° North 378 435 15,900 -2,579 Descending Boston Center
Wed 01:41:14 PM 43.8619 -73.3386 12° North 359 413 13,200 -2,420 Descending Boston Center
Wed 01:42:13 PM 43.9581 -73.3111 12° North 352 405 11,100 -1,059 Descending Boston Center
Wed 01:43:13 PM 44.0458 -73.2719 18° North 341 392 11,100 -942 Level Boston Center
Wed 01:44:14 PM 44.1150 -73.2181 29° Northeast 297 342 9,200 -1,884 Descending Boston Center
Wed 01:45:14 PM 44.1797 -73.1694 28° Northeast 272 313 7,300 -1,884 Descending Boston Center
Wed 01:46:15 PM 44.2467 -73.1269 24° Northeast 261 300 5,400 -1,587 Descending Boston Center
Wed 01:47:15 PM 44.3075 -73.0842 27° Northeast 250 288 4,100 -1,050 Descending Boston Center
Wed 01:48:15 PM 44.3575 -73.0586 20° North 215 247 3,300 -915 Descending Boston Center
Wed 01:49:13 PM 44.4033 -73.0647 355° North 178 205 2,300 -1,034 Descending Boston Center

Login

Don't have an account? Register now (free) for customized features, flight alerts, and more!